หน้าหลัก
METAR-TAF:

METAR-TAF

ท่าอากาศยาน :

Sligo, ไอร์แลนด์

ละติจูด: 54-16-49N, ลองจิจูด: 8-35-57W, ความสูง: 3 ม.

การสังเกตสภาพอากาศปัจจุบัน

รายงานได้ทำขึ้นเมื่อ 3 ชั่วโมงและ 11 นาทีที่แล้ว ณ เวลา 21:00 UTC
ลม 11 นอตจากเหนือ
อุณหภูมิ 11°C
ความกดอากาศ 1023 hPa
ทัศนวิสัย 10 กม. หรือมากกว่า
มีเมฆเป็นส่วนมากเว้นเป็นระยะที่ความสูง 3900 ฟุต

METAR: EISG 182100Z 35011KT 9999 BKN039 11/// Q1023

เวลา: 01:11 (00:11 UTC)

การพยากรณ์

รายงานได้ทำขึ้นเมื่อ 1 ชั่วโมงและ 11 นาทีที่แล้ว ณ เวลา 23:00 UTC
การพยากรณ์มีผลตั้งแต่วันที่ 19 ณ เวลา 00 UTC จนถึงวันที่ 19 ณ เวลา 09 UTC
ลม 8 นอตจากเหนือ
ทัศนวิสัย 10 กม. หรือมากกว่า
มีเมฆกระจายเป็นบางส่วนที่ความสูง 3500 ฟุต

TAF: EISG 182300Z 1900/1909 35008KT 9999 SCT035

สังเกตการณ์สภาพอากาศและพยากรณ์อากาศของสนามบินมากกว่า 4000 แห่ง (รายงาน METAR และ TAF).

สถานีที่ดูได้จะแสดงไว้ด้วยจุดสีเหลืองและสีแดงบนแผนที่.

เลื่อนเมาส์ไปเหนือจุดเพื่อดูชื่อสถานี.

แล้วคลิกเพื่อดูสังเกตการณ์และการพยากรณ์สภาพอากาศ.

ในการเปลี่ยนแผนที่: คลิกที่ปุ่มสีเขียวที่มีกากบาทสีดำเพื่อซูมเข้า; ที่ปุ่มสีเขียวที่มีขีดเพื่อซูมออก; หรือที่ลูกศรสีเขียวเพื่อไปยังแผนที่ที่อยู่ติดกัน.


METAR-TAF: